createdAt,value
2022-11-27T00:00:38.135Z,418.00
2022-11-27T00:01:38.124Z,418.00
2022-11-27T00:02:40.757Z,415.00
2022-11-27T00:03:38.343Z,415.00
2022-11-27T00:04:38.103Z,415.00
2022-11-27T00:05:38.083Z,417.00
2022-11-27T00:06:38.052Z,417.00
2022-11-27T00:07:38.088Z,416.00
2022-11-27T00:08:38.039Z,419.00
2022-11-27T00:09:38.470Z,419.00
2022-11-27T00:10:38.023Z,420.00
2022-11-27T00:11:37.981Z,421.00
2022-11-27T00:12:37.993Z,421.00
2022-11-27T00:13:37.971Z,424.00
2022-11-27T00:14:37.950Z,425.00
2022-11-27T00:15:38.026Z,422.00
2022-11-27T00:16:37.952Z,420.00
2022-11-27T00:17:37.924Z,422.00
2022-11-27T00:18:37.902Z,423.00
2022-11-27T00:19:38.118Z,421.00
2022-11-27T00:20:37.871Z,417.00
2022-11-27T00:21:37.863Z,419.00
2022-11-27T00:22:37.862Z,418.00
2022-11-27T00:23:37.839Z,416.00
2022-11-27T00:24:38.023Z,417.00
2022-11-27T00:25:37.811Z,420.00
2022-11-27T00:26:38.543Z,420.00
2022-11-27T00:27:37.782Z,420.00
2022-11-27T00:28:37.781Z,420.00
2022-11-27T00:29:37.752Z,420.00
2022-11-27T00:30:37.734Z,421.00
2022-11-27T00:31:38.123Z,420.00
2022-11-27T00:32:37.710Z,419.00
2022-11-27T00:33:37.730Z,418.00
2022-11-27T00:34:37.815Z,416.00
2022-11-27T00:35:37.672Z,416.00
2022-11-27T00:36:37.663Z,417.00
2022-11-27T00:37:37.651Z,414.00
2022-11-27T00:38:39.194Z,415.00
2022-11-27T00:39:37.628Z,414.00
2022-11-27T00:40:37.623Z,415.00
2022-11-27T00:41:37.591Z,416.00
2022-11-27T00:42:37.580Z,415.00
2022-11-27T00:43:44.198Z,414.00
2022-11-27T00:44:38.851Z,417.00
2022-11-27T00:45:37.540Z,418.00
2022-11-27T00:46:37.591Z,416.00
2022-11-27T00:47:37.519Z,414.00
2022-11-27T00:48:37.501Z,414.00
2022-11-27T00:49:37.490Z,415.00
2022-11-27T00:50:37.470Z,416.00
2022-11-27T00:51:37.459Z,415.00
2022-11-27T00:52:37.458Z,417.00
2022-11-27T00:53:37.439Z,416.00
2022-11-27T00:54:37.602Z,418.00
2022-11-27T00:55:37.425Z,417.00
2022-11-27T00:56:37.388Z,416.00
2022-11-27T00:57:37.388Z,415.00
2022-11-27T00:58:37.399Z,416.00
2022-11-27T00:59:37.359Z,417.00
2022-11-27T01:00:37.338Z,416.00
2022-11-27T01:01:37.358Z,416.00
2022-11-27T01:02:37.348Z,418.00
2022-11-27T01:03:37.308Z,421.00
2022-11-27T01:04:37.455Z,423.00
2022-11-27T01:05:37.285Z,423.00
2022-11-27T01:06:37.408Z,425.00
2022-11-27T01:07:37.294Z,424.00
2022-11-27T01:08:37.237Z,424.00
2022-11-27T01:09:37.238Z,425.00
2022-11-27T01:10:37.238Z,424.00
2022-11-27T01:11:37.209Z,424.00
2022-11-27T01:12:37.177Z,426.00
2022-11-27T01:13:37.169Z,424.00
2022-11-27T01:14:37.346Z,420.00
2022-11-27T01:15:37.176Z,419.00
2022-11-27T01:16:42.037Z,420.00
2022-11-27T01:17:38.117Z,421.00
2022-11-27T01:18:37.109Z,419.00
2022-11-27T01:19:37.086Z,417.00
2022-11-27T01:20:37.076Z,417.00
2022-11-27T01:21:37.057Z,417.00
2022-11-27T01:22:37.088Z,417.00
2022-11-27T01:23:37.034Z,416.00
2022-11-27T01:24:37.176Z,411.00
2022-11-27T01:25:37.007Z,412.00
2022-11-27T01:26:36.988Z,414.00
2022-11-27T01:27:36.981Z,415.00
2022-11-27T01:28:36.995Z,413.00
2022-11-27T01:29:36.948Z,415.00
2022-11-27T01:30:36.946Z,415.00
2022-11-27T01:31:36.968Z,414.00
2022-11-27T01:32:36.917Z,415.00
2022-11-27T01:33:36.907Z,414.00
2022-11-27T01:34:36.972Z,413.00
2022-11-27T01:35:36.875Z,414.00
2022-11-27T01:36:36.865Z,416.00
2022-11-27T01:37:36.845Z,415.00
2022-11-27T01:38:36.836Z,414.00
2022-11-27T01:39:36.817Z,412.00
2022-11-27T01:40:36.835Z,414.00
2022-11-27T01:41:36.795Z,415.00
2022-11-27T01:42:36.785Z,416.00
2022-11-27T01:43:36.765Z,416.00
2022-11-27T01:44:36.871Z,416.00
2022-11-27T01:45:36.739Z,418.00
2022-11-27T01:46:36.796Z,419.00
2022-11-27T01:47:36.712Z,421.00
2022-11-27T01:48:36.704Z,422.00
2022-11-27T01:49:36.688Z,422.00
2022-11-27T01:50:36.675Z,423.00
2022-11-27T01:51:36.657Z,424.00
2022-11-27T01:52:36.675Z,424.00
2022-11-27T01:53:36.634Z,426.00
2022-11-27T01:54:36.715Z,426.00
2022-11-27T01:55:36.606Z,424.00
2022-11-27T01:56:36.602Z,423.00
2022-11-27T01:57:36.582Z,423.00
2022-11-27T01:58:36.594Z,424.00
2022-11-27T01:59:36.557Z,425.00
2022-11-27T02:00:36.554Z,424.00
2022-11-27T02:01:36.605Z,423.00
2022-11-27T02:02:36.578Z,423.00
2022-11-27T02:03:36.501Z,423.00
2022-11-27T02:04:36.514Z,422.00
2022-11-27T02:05:36.474Z,421.00
2022-11-27T02:06:36.490Z,420.00
2022-11-27T02:07:36.496Z,420.00
2022-11-27T02:08:36.434Z,419.00
2022-11-27T02:09:36.423Z,415.00
2022-11-27T02:10:36.445Z,415.00
2022-11-27T02:11:36.395Z,416.00
2022-11-27T02:12:36.392Z,416.00
2022-11-27T02:13:36.374Z,418.00
2022-11-27T02:14:36.373Z,418.00
2022-11-27T02:15:36.381Z,420.00
2022-11-27T02:16:36.434Z,418.00
2022-11-27T02:17:36.313Z,418.00
2022-11-27T02:18:36.302Z,420.00
2022-11-27T02:19:36.307Z,422.00
2022-11-27T02:20:36.310Z,422.00
2022-11-27T02:21:36.263Z,421.00
2022-11-27T02:22:36.276Z,422.00
2022-11-27T02:23:36.257Z,420.00
2022-11-27T02:24:36.222Z,419.00
2022-11-27T02:25:36.204Z,418.00
2022-11-27T02:26:36.202Z,418.00
2022-11-27T02:27:36.192Z,418.00
2022-11-27T02:28:36.199Z,419.00
2022-11-27T02:29:36.158Z,419.00
2022-11-27T02:30:36.152Z,417.00
2022-11-27T02:31:36.159Z,415.00
2022-11-27T02:32:36.122Z,417.00
2022-11-27T02:33:36.102Z,417.00
2022-11-27T02:34:36.112Z,415.00
2022-11-27T02:35:36.076Z,414.00
2022-11-27T02:36:37.062Z,421.00
2022-11-27T02:37:36.056Z,417.00
2022-11-27T02:38:36.041Z,421.00
2022-11-27T02:39:36.021Z,423.00
2022-11-27T02:40:36.031Z,422.00
2022-11-27T02:41:35.994Z,420.00
2022-11-27T02:42:35.992Z,420.00
2022-11-27T02:43:35.971Z,419.00
2022-11-27T02:44:35.961Z,419.00
2022-11-27T02:45:35.943Z,419.00
2022-11-27T02:46:36.037Z,418.00
2022-11-27T02:47:35.911Z,418.00
2022-11-27T02:48:35.911Z,417.00
2022-11-27T02:49:35.882Z,417.00
2022-11-27T02:50:35.881Z,418.00
2022-11-27T02:51:35.871Z,417.00
2022-11-27T02:52:35.881Z,415.00
2022-11-27T02:53:35.833Z,417.00
2022-11-27T02:54:35.830Z,419.00
2022-11-27T02:55:35.810Z,421.00
2022-11-27T02:56:35.813Z,423.00
2022-11-27T02:57:35.790Z,423.00
2022-11-27T02:58:35.801Z,423.00
2022-11-27T02:59:35.759Z,423.00
2022-11-27T03:00:35.750Z,422.00
2022-11-27T03:01:35.781Z,418.00
2022-11-27T03:02:35.801Z,418.00
2022-11-27T03:03:35.711Z,417.00
2022-11-27T03:04:35.720Z,414.00
2022-11-27T03:05:35.682Z,413.00
2022-11-27T03:06:35.668Z,413.00
2022-11-27T03:07:35.680Z,414.00
2022-11-27T03:08:35.639Z,414.00
2022-11-27T03:09:35.628Z,415.00
2022-11-27T03:10:35.640Z,414.00
2022-11-27T03:11:35.598Z,416.00
2022-11-27T03:12:35.589Z,419.00
2022-11-27T03:13:35.569Z,420.00
2022-11-27T03:14:35.565Z,418.00
2022-11-27T03:15:35.596Z,419.00
2022-11-27T03:16:35.640Z,422.00
2022-11-27T03:17:35.521Z,421.00
2022-11-27T03:18:35.508Z,424.00
2022-11-27T03:19:35.489Z,424.00
2022-11-27T03:20:35.489Z,422.00
2022-11-27T03:21:35.461Z,423.00
2022-11-27T03:22:35.479Z,423.00
2022-11-27T03:23:35.437Z,423.00
2022-11-27T03:24:35.439Z,426.00
2022-11-27T03:25:35.413Z,425.00
2022-11-27T03:26:35.408Z,425.00
2022-11-27T03:27:35.387Z,425.00
2022-11-27T03:28:35.388Z,424.00
2022-11-27T03:29:35.360Z,423.00
2022-11-27T03:30:35.353Z,424.00
2022-11-27T03:31:35.414Z,424.00
2022-11-27T03:32:35.340Z,425.00
2022-11-27T03:33:35.307Z,428.00
2022-11-27T03:34:35.316Z,426.00
2022-11-27T03:35:35.284Z,425.00
2022-11-27T03:36:35.277Z,427.00
2022-11-27T03:37:35.255Z,430.00
2022-11-27T03:38:35.249Z,433.00
2022-11-27T03:39:35.233Z,435.00
2022-11-27T03:40:35.239Z,436.00
2022-11-27T03:41:35.199Z,436.00
2022-11-27T03:42:35.203Z,435.00
2022-11-27T03:43:35.180Z,438.00
2022-11-27T03:44:35.197Z,436.00
2022-11-27T03:45:35.139Z,437.00
2022-11-27T03:46:35.214Z,437.00
2022-11-27T03:47:35.169Z,439.00
2022-11-27T03:48:35.111Z,440.00
2022-11-27T03:49:35.096Z,444.00
2022-11-27T03:50:35.086Z,443.00
2022-11-27T03:51:35.079Z,444.00
2022-11-27T03:52:35.076Z,445.00
2022-11-27T03:53:35.043Z,444.00
2022-11-27T03:54:35.026Z,444.00
2022-11-27T03:55:35.016Z,441.00
2022-11-27T03:56:35.005Z,440.00
2022-11-27T03:57:34.986Z,439.00
2022-11-27T03:58:34.996Z,441.00
2022-11-27T03:59:34.959Z,443.00
2022-11-27T04:00:34.948Z,452.00
2022-11-27T04:01:34.983Z,456.00
2022-11-27T04:02:34.927Z,455.00
2022-11-27T04:03:34.944Z,454.00
2022-11-27T04:04:34.914Z,451.00
2022-11-27T04:05:34.875Z,448.00
2022-11-27T04:06:34.866Z,446.00
2022-11-27T04:07:34.894Z,444.00
2022-11-27T04:08:34.844Z,440.00
2022-11-27T04:09:34.827Z,444.00
2022-11-27T04:10:34.852Z,448.00
2022-11-27T04:11:34.793Z,449.00
2022-11-27T04:12:34.795Z,448.00
2022-11-27T04:13:34.774Z,449.00
2022-11-27T04:14:34.784Z,449.00
2022-11-27T04:15:34.744Z,448.00
2022-11-27T04:16:34.809Z,447.00
2022-11-27T04:17:34.715Z,448.00
2022-11-27T04:18:34.713Z,450.00
2022-11-27T04:19:34.693Z,448.00
2022-11-27T04:20:34.684Z,446.00
2022-11-27T04:21:34.671Z,445.00
2022-11-27T04:22:34.673Z,444.00
2022-11-27T04:23:34.643Z,443.00
2022-11-27T04:24:34.633Z,446.00
2022-11-27T04:25:34.627Z,450.00
2022-11-27T04:26:34.613Z,451.00
2022-11-27T04:27:34.582Z,454.00
2022-11-27T04:28:34.601Z,451.00
2022-11-27T04:29:34.572Z,450.00
2022-11-27T04:30:34.559Z,449.00
2022-11-27T04:31:34.648Z,449.00
2022-11-27T04:32:34.523Z,446.00
2022-11-27T04:33:34.509Z,445.00
2022-11-27T04:34:34.523Z,442.00
2022-11-27T04:35:34.482Z,440.00
2022-11-27T04:36:38.958Z,441.00
2022-11-27T04:37:35.456Z,440.00
2022-11-27T04:38:34.460Z,440.00
2022-11-27T04:39:34.431Z,442.00
2022-11-27T04:40:34.442Z,439.00
2022-11-27T04:41:34.414Z,440.00
2022-11-27T04:42:34.392Z,440.00
2022-11-27T04:43:34.381Z,441.00
2022-11-27T04:44:34.370Z,441.00
2022-11-27T04:45:34.351Z,438.00
2022-11-27T04:46:34.402Z,437.00
2022-11-27T04:47:34.321Z,436.00
2022-11-27T04:48:34.322Z,437.00
2022-11-27T04:49:34.307Z,436.00
2022-11-27T04:50:34.292Z,435.00
2022-11-27T04:51:34.268Z,436.00
2022-11-27T04:52:34.289Z,436.00
2022-11-27T04:53:34.249Z,435.00
2022-11-27T04:54:34.242Z,433.00
2022-11-27T04:55:34.219Z,436.00
2022-11-27T04:56:34.218Z,438.00
2022-11-27T04:57:34.191Z,436.00
2022-11-27T04:58:34.209Z,436.00
2022-11-27T04:59:34.170Z,435.00
2022-11-27T05:00:34.225Z,434.00
2022-11-27T05:01:34.149Z,435.00
2022-11-27T05:02:34.167Z,439.00
2022-11-27T05:03:34.120Z,444.00
2022-11-27T05:04:34.139Z,445.00
2022-11-27T05:05:34.089Z,446.00
2022-11-27T05:06:34.091Z,446.00
2022-11-27T05:07:34.141Z,449.00
2022-11-27T05:08:34.062Z,449.00
2022-11-27T05:09:34.038Z,453.00
2022-11-27T05:10:34.058Z,460.00
2022-11-27T05:11:34.008Z,463.00
2022-11-27T05:12:34.007Z,467.00
2022-11-27T05:13:33.987Z,474.00
2022-11-27T05:14:33.986Z,481.00
2022-11-27T05:15:33.956Z,486.00
2022-11-27T05:16:33.991Z,488.00
2022-11-27T05:17:33.936Z,492.00
2022-11-27T05:18:33.927Z,491.00
2022-11-27T05:19:33.907Z,486.00
2022-11-27T05:20:33.896Z,483.00
2022-11-27T05:21:33.875Z,481.00
2022-11-27T05:22:33.896Z,477.00
2022-11-27T05:23:33.856Z,478.00
2022-11-27T05:24:33.845Z,477.00
2022-11-27T05:25:33.826Z,475.00
2022-11-27T05:26:33.825Z,475.00
2022-11-27T05:27:33.804Z,471.00
2022-11-27T05:28:33.824Z,468.00
2022-11-27T05:29:33.779Z,466.00
2022-11-27T05:30:33.764Z,464.00
2022-11-27T05:31:33.886Z,460.00
2022-11-27T05:32:33.735Z,456.00
2022-11-27T05:33:33.724Z,451.00
2022-11-27T05:34:33.732Z,449.00
2022-11-27T05:35:33.695Z,450.00
2022-11-27T05:36:33.693Z,449.00
2022-11-27T05:37:33.673Z,448.00
2022-11-27T05:38:33.662Z,445.00
2022-11-27T05:39:33.646Z,446.00
2022-11-27T05:40:33.664Z,447.00
2022-11-27T05:41:33.613Z,449.00
2022-11-27T05:42:33.614Z,450.00
2022-11-27T05:43:33.592Z,449.00
2022-11-27T05:44:33.583Z,450.00
2022-11-27T05:45:33.565Z,452.00
2022-11-27T05:46:33.697Z,449.00
2022-11-27T05:47:33.532Z,446.00
2022-11-27T05:48:33.532Z,447.00
2022-11-27T05:49:33.512Z,447.00
2022-11-27T05:50:33.501Z,445.00
2022-11-27T05:51:33.491Z,445.00
2022-11-27T05:52:33.523Z,440.00
2022-11-27T05:53:33.466Z,440.00
2022-11-27T05:54:33.451Z,439.00
2022-11-27T05:55:33.441Z,438.00
2022-11-27T05:56:33.431Z,436.00
2022-11-27T05:57:33.403Z,436.00
2022-11-27T05:58:33.421Z,436.00
2022-11-27T05:59:33.381Z,436.00
2022-11-27T06:00:33.371Z,436.00
2022-11-27T06:01:33.384Z,436.00
2022-11-27T06:02:33.475Z,436.00
2022-11-27T06:03:33.371Z,440.00
2022-11-27T06:04:33.340Z,441.00
2022-11-27T06:05:33.301Z,445.00
2022-11-27T06:06:33.304Z,446.00
2022-11-27T06:07:33.342Z,449.00
2022-11-27T06:08:33.270Z,449.00
2022-11-27T06:09:33.250Z,448.00
2022-11-27T06:10:33.279Z,449.00
2022-11-27T06:11:33.227Z,449.00
2022-11-27T06:12:33.219Z,448.00
2022-11-27T06:13:33.199Z,452.00
2022-11-27T06:14:33.188Z,451.00
2022-11-27T06:15:33.175Z,451.00
2022-11-27T06:16:33.252Z,450.00
2022-11-27T06:17:33.139Z,450.00
2022-11-27T06:18:33.141Z,450.00
2022-11-27T06:19:33.119Z,448.00
2022-11-27T06:20:33.117Z,446.00
2022-11-27T06:21:33.086Z,446.00
2022-11-27T06:22:33.108Z,447.00
2022-11-27T06:23:33.069Z,448.00
2022-11-27T06:24:33.057Z,447.00
2022-11-27T06:25:33.037Z,447.00
2022-11-27T06:26:33.028Z,447.00
2022-11-27T06:27:33.016Z,448.00
2022-11-27T06:28:33.040Z,450.00
2022-11-27T06:29:32.986Z,452.00
2022-11-27T06:30:32.976Z,453.00
2022-11-27T06:31:33.084Z,452.00
2022-11-27T06:32:32.957Z,455.00
2022-11-27T06:33:32.936Z,457.00
2022-11-27T06:34:32.954Z,457.00
2022-11-27T06:35:32.905Z,456.00
2022-11-27T06:36:32.918Z,456.00
2022-11-27T06:37:32.886Z,456.00
2022-11-27T06:38:32.876Z,454.00
2022-11-27T06:39:32.855Z,454.00
2022-11-27T06:40:32.882Z,458.00
2022-11-27T06:41:32.835Z,458.00
2022-11-27T06:42:32.824Z,455.00
2022-11-27T06:43:32.805Z,453.00
2022-11-27T06:44:32.796Z,453.00
2022-11-27T06:45:32.793Z,453.00
2022-11-27T06:46:32.805Z,452.00
2022-11-27T06:47:32.752Z,453.00
2022-11-27T06:48:32.743Z,451.00
2022-11-27T06:49:32.724Z,452.00
2022-11-27T06:50:32.726Z,452.00
2022-11-27T06:51:32.697Z,449.00
2022-11-27T06:52:37.187Z,450.00
2022-11-27T06:53:33.672Z,448.00
2022-11-27T06:54:32.663Z,446.00
2022-11-27T06:55:32.654Z,445.00
2022-11-27T06:56:32.640Z,442.00
2022-11-27T06:57:32.621Z,439.00
2022-11-27T06:58:32.633Z,432.00
2022-11-27T06:59:32.594Z,435.00
2022-11-27T07:00:32.630Z,436.00
2022-11-27T07:01:32.705Z,438.00
2022-11-27T07:02:32.579Z,438.00
2022-11-27T07:03:32.551Z,435.00
2022-11-27T07:04:32.553Z,438.00
2022-11-27T07:05:32.511Z,435.00
2022-11-27T07:06:32.508Z,433.00
2022-11-27T07:07:32.532Z,434.00
2022-11-27T07:08:32.481Z,432.00
2022-11-27T07:09:32.460Z,433.00
2022-11-27T07:10:32.489Z,438.00
2022-11-27T07:11:32.440Z,440.00
2022-11-27T07:12:32.431Z,440.00
2022-11-27T07:13:32.410Z,439.00
2022-11-27T07:14:32.400Z,436.00
2022-11-27T07:15:32.381Z,435.00
2022-11-27T07:16:32.457Z,435.00
2022-11-27T07:17:32.359Z,432.00
2022-11-27T07:18:32.350Z,431.00
2022-11-27T07:19:32.334Z,429.00
2022-11-27T07:20:32.320Z,428.00
2022-11-27T07:21:32.305Z,427.00
2022-11-27T07:22:32.318Z,426.00
2022-11-27T07:23:32.269Z,426.00
2022-11-27T07:24:32.270Z,424.00
2022-11-27T07:25:32.248Z,426.00
2022-11-27T07:26:32.255Z,427.00
2022-11-27T07:27:32.220Z,429.00
2022-11-27T07:28:32.248Z,433.00
2022-11-27T07:29:32.198Z,437.00
2022-11-27T07:30:32.196Z,438.00
2022-11-27T07:31:32.227Z,440.00
2022-11-27T07:32:32.170Z,443.00
2022-11-27T07:33:32.140Z,444.00
2022-11-27T07:34:33.177Z,446.00
2022-11-27T07:35:32.126Z,447.00
2022-11-27T07:36:32.107Z,448.00
2022-11-27T07:37:32.098Z,449.00
2022-11-27T07:38:32.087Z,445.00
2022-11-27T07:40:00.281Z,444.00
2022-11-27T07:40:33.076Z,440.00
2022-11-27T07:41:34.102Z,438.00
2022-11-27T07:42:39.550Z,439.00
2022-11-27T07:43:33.043Z,440.00
2022-11-27T07:44:32.007Z,440.00
2022-11-27T07:45:32.039Z,439.00
2022-11-27T07:46:31.997Z,438.00
2022-11-27T07:47:31.965Z,438.00
2022-11-27T07:48:31.966Z,439.00
2022-11-27T07:49:31.935Z,439.00
2022-11-27T07:50:31.927Z,440.00
2022-11-27T07:51:31.917Z,438.00
2022-11-27T07:52:34.510Z,437.00
2022-11-27T07:53:32.885Z,434.00
2022-11-27T07:54:31.874Z,436.00
2022-11-27T07:55:31.865Z,439.00
2022-11-27T07:56:31.854Z,440.00
2022-11-27T07:57:31.836Z,441.00
2022-11-27T07:58:31.856Z,440.00
2022-11-27T07:59:31.805Z,440.00
2022-11-27T08:00:31.805Z,442.00
2022-11-27T08:01:31.840Z,443.00
2022-11-27T08:02:31.774Z,442.00
2022-11-27T08:03:31.754Z,442.00
2022-11-27T08:04:31.818Z,441.00
2022-11-27T08:05:31.732Z,438.00
2022-11-27T08:06:31.712Z,438.00
2022-11-27T08:07:31.737Z,437.00
2022-11-27T08:08:31.695Z,437.00
2022-11-27T08:09:31.673Z,437.00
2022-11-27T08:10:31.699Z,440.00
2022-11-27T08:11:31.643Z,443.00
2022-11-27T08:12:31.642Z,446.00
2022-11-27T08:13:31.625Z,446.00
2022-11-27T08:14:31.622Z,446.00
2022-11-27T08:15:31.592Z,448.00
2022-11-27T08:16:31.715Z,449.00
2022-11-27T08:17:31.575Z,448.00
2022-11-27T08:18:31.562Z,449.00
2022-11-27T08:19:31.541Z,448.00
2022-11-27T08:20:31.540Z,448.00
2022-11-27T08:21:31.511Z,445.00
2022-11-27T08:22:31.550Z,443.00
2022-11-27T08:23:31.491Z,441.00
2022-11-27T08:24:31.481Z,437.00
2022-11-27T08:25:31.460Z,434.00
2022-11-27T08:26:31.452Z,432.00
2022-11-27T08:27:31.438Z,427.00
2022-11-27T08:28:31.459Z,422.00
2022-11-27T08:29:34.032Z,422.00
2022-11-27T08:30:31.412Z,423.00
2022-11-27T08:31:31.418Z,424.00
2022-11-27T08:32:31.381Z,425.00
2022-11-27T08:33:31.360Z,425.00
2022-11-27T08:34:31.369Z,423.00
2022-11-27T08:35:31.337Z,423.00
2022-11-27T08:36:31.329Z,420.00
2022-11-27T08:37:31.311Z,417.00
2022-11-27T08:38:31.297Z,418.00
2022-11-27T08:39:31.279Z,417.00
2022-11-27T08:40:31.300Z,417.00
2022-11-27T08:41:31.259Z,419.00
2022-11-27T08:42:31.238Z,417.00
2022-11-27T08:43:31.356Z,419.00
2022-11-27T08:44:31.218Z,419.00
2022-11-27T08:45:31.241Z,417.00
2022-11-27T08:46:31.228Z,417.00
2022-11-27T08:47:31.176Z,414.00
2022-11-27T08:48:31.167Z,416.00
2022-11-27T08:49:31.148Z,417.00
2022-11-27T08:50:31.136Z,415.00
2022-11-27T08:51:31.127Z,413.00
2022-11-27T08:52:31.147Z,411.00
2022-11-27T08:53:31.109Z,409.00
2022-11-27T08:54:31.086Z,409.00
2022-11-27T08:55:31.067Z,412.00
2022-11-27T08:56:31.065Z,412.00
2022-11-27T08:57:31.037Z,413.00
2022-11-27T08:58:31.068Z,414.00
2022-11-27T08:59:31.017Z,416.00
2022-11-27T09:00:31.006Z,414.00
2022-11-27T09:01:31.067Z,414.00
2022-11-27T09:02:30.986Z,414.00
2022-11-27T09:03:30.965Z,411.00
2022-11-27T09:04:31.067Z,414.00
2022-11-27T09:05:30.937Z,414.00
2022-11-27T09:06:30.927Z,414.00
2022-11-27T09:07:30.931Z,412.00
2022-11-27T09:08:30.906Z,411.00
2022-11-27T09:09:30.899Z,411.00
2022-11-27T09:10:30.895Z,409.00
2022-11-27T09:11:30.855Z,409.00
2022-11-27T09:12:30.853Z,407.00
2022-11-27T09:13:30.826Z,408.00
2022-11-27T09:14:30.825Z,406.00
2022-11-27T09:15:30.804Z,407.00
2022-11-27T09:16:30.906Z,408.00
2022-11-27T09:17:30.784Z,409.00
2022-11-27T09:18:30.775Z,409.00
2022-11-27T09:19:30.764Z,415.00
2022-11-27T09:20:30.744Z,414.00
2022-11-27T09:21:30.726Z,413.00
2022-11-27T09:22:30.764Z,412.00
2022-11-27T09:23:30.707Z,412.00
2022-11-27T09:24:30.693Z,410.00
2022-11-27T09:25:30.673Z,409.00
2022-11-27T09:26:30.664Z,408.00
2022-11-27T09:27:30.645Z,409.00
2022-11-27T09:28:31.813Z,407.00
2022-11-27T09:29:30.625Z,405.00
2022-11-27T09:30:30.613Z,410.00
2022-11-27T09:31:30.620Z,410.00
2022-11-27T09:32:30.584Z,410.00
2022-11-27T09:33:30.563Z,411.00
2022-11-27T09:34:36.023Z,410.00
2022-11-27T09:35:31.625Z,411.00
2022-11-27T09:36:30.534Z,410.00
2022-11-27T09:37:30.513Z,410.00
2022-11-27T09:38:30.504Z,407.00
2022-11-27T09:39:30.502Z,406.00
2022-11-27T09:40:30.509Z,408.00
2022-11-27T09:41:30.462Z,410.00
2022-11-27T09:42:30.452Z,408.00
2022-11-27T09:43:30.431Z,412.00
2022-11-27T09:44:30.434Z,411.00
2022-11-27T09:45:30.455Z,412.00
2022-11-27T09:46:30.428Z,411.00
2022-11-27T09:47:30.382Z,412.00
2022-11-27T09:48:30.385Z,411.00
2022-11-27T09:49:30.371Z,411.00
2022-11-27T09:50:30.354Z,412.00
2022-11-27T09:51:30.321Z,409.00
2022-11-27T09:52:30.351Z,407.00
2022-11-27T09:53:30.300Z,409.00
2022-11-27T09:54:30.299Z,409.00
2022-11-27T09:55:30.271Z,409.00
2022-11-27T09:56:30.273Z,408.00
2022-11-27T09:57:30.251Z,407.00
2022-11-27T09:58:30.263Z,409.00
2022-11-27T09:59:30.230Z,407.00
2022-11-27T10:00:30.222Z,408.00
2022-11-27T10:01:38.236Z,411.00
2022-11-27T10:02:31.360Z,410.00
2022-11-27T10:03:30.232Z,407.00
2022-11-27T10:04:39.885Z,406.00
2022-11-27T10:05:31.141Z,403.00
2022-11-27T10:06:30.130Z,401.00
2022-11-27T10:07:30.142Z,402.00
2022-11-27T10:08:30.111Z,402.00
2022-11-27T10:09:30.091Z,398.00
2022-11-27T10:10:30.110Z,397.00
2022-11-27T10:11:30.065Z,399.00
2022-11-27T10:12:30.061Z,399.00
2022-11-27T10:13:30.032Z,399.00
2022-11-27T10:14:30.029Z,399.00
2022-11-27T10:15:30.007Z,400.00
2022-11-27T10:16:30.060Z,401.00
2022-11-27T10:17:29.982Z,401.00
2022-11-27T10:18:29.988Z,401.00
2022-11-27T10:19:29.967Z,402.00
2022-11-27T10:20:29.948Z,401.00
2022-11-27T10:21:29.930Z,403.00
2022-11-27T10:22:29.959Z,403.00
2022-11-27T10:23:29.899Z,403.00
2022-11-27T10:24:29.898Z,402.00
2022-11-27T10:25:29.869Z,402.00
2022-11-27T10:26:29.870Z,400.00
2022-11-27T10:27:29.849Z,402.00
2022-11-27T10:28:29.882Z,402.00
2022-11-27T10:29:29.829Z,402.00
2022-11-27T10:30:29.823Z,402.00
2022-11-27T10:31:29.828Z,403.00
2022-11-27T10:33:30.799Z,402.00
2022-11-27T10:34:29.761Z,403.00
2022-11-27T10:35:29.739Z,401.00
2022-11-27T10:36:29.738Z,401.00
2022-11-27T10:37:29.709Z,402.00
2022-11-27T10:38:29.698Z,403.00
2022-11-27T10:39:29.715Z,402.00
2022-11-27T10:40:29.678Z,401.00
2022-11-27T10:42:30.648Z,401.00
2022-11-27T10:43:29.630Z,403.00
2022-11-27T10:44:29.625Z,406.00
2022-11-27T10:45:29.684Z,407.00
2022-11-27T10:46:29.667Z,405.00
2022-11-27T10:47:33.453Z,405.00
2022-11-27T10:48:29.572Z,406.00
2022-11-27T10:49:29.568Z,404.00
2022-11-27T10:50:29.539Z,405.00
2022-11-27T10:51:29.548Z,405.00
2022-11-27T10:52:29.506Z,405.00
2022-11-27T10:53:29.514Z,404.00
2022-11-27T10:54:29.488Z,403.00
2022-11-27T10:55:29.478Z,401.00
2022-11-27T10:56:29.465Z,398.00
2022-11-27T10:57:29.467Z,398.00
2022-11-27T10:58:29.428Z,399.00
2022-11-27T10:59:33.210Z,399.00
2022-11-27T11:00:30.408Z,398.00
2022-11-27T11:01:29.512Z,397.00
2022-11-27T11:02:29.418Z,398.00
2022-11-27T11:03:29.407Z,398.00
2022-11-27T11:04:48.473Z,399.00
2022-11-27T11:05:44.974Z,401.00
2022-11-27T11:06:30.337Z,401.00
2022-11-27T11:07:29.381Z,401.00
2022-11-27T11:08:29.308Z,400.00
2022-11-27T11:09:29.316Z,402.00
2022-11-27T11:10:29.284Z,403.00
2022-11-27T11:11:29.267Z,403.00
2022-11-27T11:12:29.248Z,403.00
2022-11-27T11:13:29.237Z,402.00
2022-11-27T11:14:29.241Z,402.00
2022-11-27T11:15:29.227Z,402.00
2022-11-27T11:16:34.479Z,400.00
2022-11-27T11:17:30.264Z,401.00
2022-11-27T11:18:29.186Z,401.00
2022-11-27T11:19:29.173Z,400.00
2022-11-27T11:20:29.147Z,400.00
2022-11-27T11:21:29.161Z,400.00
2022-11-27T11:22:29.127Z,398.00
2022-11-27T11:23:29.108Z,399.00
2022-11-27T11:24:29.096Z,397.00
2022-11-27T11:25:29.077Z,399.00
2022-11-27T11:26:29.067Z,398.00
2022-11-27T11:27:29.077Z,400.00
2022-11-27T11:28:29.047Z,400.00
2022-11-27T11:29:29.035Z,403.00
2022-11-27T11:30:29.025Z,402.00
2022-11-27T11:31:29.036Z,404.00
2022-11-27T11:32:28.995Z,403.00
2022-11-27T11:33:28.995Z,403.00
2022-11-27T11:34:28.968Z,401.00
2022-11-27T11:35:28.947Z,402.00
2022-11-27T11:36:28.947Z,403.00
2022-11-27T11:37:28.925Z,403.00
2022-11-27T11:38:28.916Z,405.00
2022-11-27T11:39:28.914Z,405.00
2022-11-27T11:40:28.892Z,405.00
2022-11-27T11:41:28.866Z,406.00
2022-11-27T11:42:28.855Z,407.00
2022-11-27T11:43:28.846Z,407.00
2022-11-27T11:44:28.834Z,407.00
2022-11-27T11:45:32.617Z,406.00
2022-11-27T11:46:28.816Z,403.00
2022-11-27T11:47:28.793Z,401.00
2022-11-27T11:48:28.774Z,401.00
2022-11-27T11:49:28.781Z,404.00
2022-11-27T11:50:28.751Z,404.00
2022-11-27T11:51:29.509Z,406.00
2022-11-27T11:52:28.716Z,407.00
2022-11-27T11:53:28.706Z,409.00
2022-11-27T11:54:28.695Z,408.00
2022-11-27T11:55:28.684Z,406.00
2022-11-27T11:56:28.674Z,406.00
2022-11-27T11:57:28.698Z,404.00
2022-11-27T11:58:28.636Z,404.00
2022-11-27T11:59:28.647Z,403.00
2022-11-27T12:00:32.331Z,402.00
2022-11-27T12:01:29.595Z,404.00
2022-11-27T12:02:28.708Z,406.00
2022-11-27T12:03:28.605Z,408.00
2022-11-27T12:04:28.657Z,409.00
2022-11-27T12:05:28.545Z,408.00
2022-11-27T12:06:28.544Z,406.00
2022-11-27T12:07:28.535Z,405.00
2022-11-27T12:08:28.506Z,405.00
2022-11-27T12:09:28.526Z,403.00
2022-11-27T12:10:28.482Z,402.00
2022-11-27T12:11:28.466Z,402.00
2022-11-27T12:12:28.460Z,402.00
2022-11-27T12:13:32.926Z,402.00
2022-11-27T12:14:29.445Z,400.00
2022-11-27T12:15:28.415Z,399.00
2022-11-27T12:16:28.449Z,401.00
2022-11-27T12:17:28.385Z,402.00
2022-11-27T12:18:28.365Z,403.00
2022-11-27T12:19:28.375Z,404.00
2022-11-27T12:20:28.373Z,403.00
2022-11-27T12:21:28.332Z,402.00
2022-11-27T12:22:28.313Z,400.00
2022-11-27T12:23:28.305Z,402.00
2022-11-27T12:24:28.284Z,403.00
2022-11-27T12:25:28.282Z,403.00
2022-11-27T12:26:28.288Z,401.00
2022-11-27T12:27:28.257Z,402.00
2022-11-27T12:28:28.236Z,403.00
2022-11-27T12:29:28.232Z,404.00
2022-11-27T12:30:28.204Z,405.00